Time;durP1;ratioP1;P1;durP2;ratioP2;P2;SDS_P1;SDS_P2;PMS_P1;PMS_P2;Temp;Humidity;BMP_temperature;BMP_pressure;BME280_temperature;BME280_humidity;BME280_pressure;Samples;Min_cycle;Max_cycle;Signal;HPM_P1;HPM_P2
2022/05/29 00:01:58;;;;;;;2.35;1.23;;;9.80;18.10;;;;;;5003687;28;34173;-78
2022/05/29 00:04:24;;;;;;;1.75;1.33;;;9.80;18.10;;;;;;5000826;28;35843;-77
2022/05/29 00:06:55;;;;;;;3.05;1.40;;;9.80;18.20;;;;;;4987455;28;34226;-77
2022/05/29 00:09:31;;;;;;;2.38;0.93;;;9.80;18.20;;;;;;5023850;28;34126;-78
2022/05/29 00:11:59;;;;;;;1.90;0.93;;;9.80;18.40;;;;;;4956928;28;34550;-78
2022/05/29 00:14:26;;;;;;;1.83;1.10;;;9.80;18.30;;;;;;5001340;28;35864;-77
2022/05/29 00:16:52;;;;;;;1.00;0.95;;;9.80;18.20;;;;;;5001303;28;34188;-78
2022/05/29 00:19:18;;;;;;;1.88;1.10;;;9.70;18.30;;;;;;5023118;28;34039;-77
2022/05/29 00:21:44;;;;;;;2.03;1.20;;;9.70;18.50;;;;;;5002622;28;34556;-78
2022/05/29 00:24:10;;;;;;;1.67;1.10;;;9.70;18.50;;;;;;5022906;28;34217;-77
2022/05/29 00:26:35;;;;;;;1.08;0.90;;;9.60;18.50;;;;;;5006286;28;34237;-77
2022/05/29 00:29:02;;;;;;;1.13;1.02;;;9.60;18.60;;;;;;4983506;28;34313;-76
2022/05/29 00:31:28;;;;;;;1.55;1.10;;;9.60;18.60;;;;;;4992320;28;34140;-77
2022/05/29 00:33:53;;;;;;;3.58;1.40;;;9.50;18.60;;;;;;4988792;28;36536;-77
2022/05/29 00:36:19;;;;;;;1.17;1.00;;;9.50;18.50;;;;;;4995351;28;34020;-77
2022/05/29 00:38:47;;;;;;;2.13;1.00;;;9.40;18.50;;;;;;5013481;28;34089;-77
2022/05/29 00:41:34;;;;;;;1.70;1.00;;;9.40;18.60;;;;;;4996593;28;34485;-77
2022/05/29 00:44:18;;;;;;;2.92;1.02;;;9.30;20.20;;;;;;4957518;28;35583;-78
2022/05/29 00:46:48;;;;;;;1.75;1.00;;;9.20;19.90;;;;;;4964336;28;35008;-77
2022/05/29 00:49:17;;;;;;;3.72;1.30;;;9.10;18.70;;;;;;4951744;28;34131;-77
2022/05/29 00:52:01;;;;;;;1.98;1.10;;;9.00;18.70;;;;;;4986767;28;34032;-77
2022/05/29 00:54:33;;;;;;;2.67;1.02;;;8.90;19.00;;;;;;4971676;28;35567;-77
2022/05/29 00:56:59;;;;;;;3.10;1.27;;;8.90;18.80;;;;;;4967340;28;34132;-78
2022/05/29 00:59:29;;;;;;;2.33;1.23;;;8.80;18.70;;;;;;4985288;28;34423;-78
2022/05/29 01:01:56;;;;;;;3.15;1.30;;;8.70;18.90;;;;;;4968175;28;34403;-77
2022/05/29 01:04:22;;;;;;;1.92;1.05;;;8.60;18.80;;;;;;5003671;28;34738;-77
2022/05/29 01:06:49;;;;;;;2.03;0.90;;;8.50;18.90;;;;;;4990224;28;34371;-77
2022/05/29 01:09:16;;;;;;;1.00;0.88;;;8.40;18.90;;;;;;4985244;28;34048;-77
2022/05/29 01:11:59;;;;;;;4.93;1.40;;;8.30;19.10;;;;;;4995695;28;34302;-77
2022/05/29 01:14:51;;;;;;;1.98;1.10;;;8.30;20.20;;;;;;4975983;28;34529;-77
2022/05/29 01:17:39;;;;;;;2.65;0.93;;;8.20;20.10;;;;;;4986997;28;34257;-77
2022/05/29 01:20:16;;;;;;;3.10;1.05;;;8.10;21.20;;;;;;5000520;28;34194;-78
2022/05/29 01:23:07;;;;;;;3.17;1.20;;;8.00;19.60;;;;;;5003377;28;34296;-77
2022/05/29 01:26:04;;;;;;;2.35;0.80;;;8.00;20.00;;;;;;4987887;28;35675;-77
2022/05/29 01:28:53;;;;;;;2.03;1.10;;;7.80;21.10;;;;;;4997891;28;34174;-77
2022/05/29 01:31:33;;;;;;;0.95;0.88;;;7.80;20.00;;;;;;5004138;28;34520;-79
2022/05/29 01:34:24;;;;;;;1.77;1.10;;;7.70;20.30;;;;;;4978217;28;34596;-77
2022/05/29 01:37:14;;;;;;;2.08;0.95;;;7.60;21.40;;;;;;4974985;28;36933;-77
2022/05/29 01:40:09;;;;;;;1.98;1.02;;;7.50;20.90;;;;;;4986620;28;34205;-78
2022/05/29 01:42:53;;;;;;;1.95;0.90;;;7.50;21.10;;;;;;4960477;28;34141;-78
2022/05/29 01:45:53;;;;;;;4.22;1.35;;;7.40;19.80;;;;;;4988097;28;34104;-77
2022/05/29 01:48:35;;;;;;;2.67;1.17;;;7.30;21.20;;;;;;5000534;28;35788;-77
2022/05/29 01:51:11;;;;;;;3.03;1.30;;;7.20;20.30;;;;;;5009353;28;34100;-78
2022/05/29 01:53:42;;;;;;;1.45;0.93;;;7.10;20.50;;;;;;4986213;28;34380;-76
2022/05/29 01:56:19;;;;;;;5.18;1.17;;;7.10;20.20;;;;;;4983316;28;34412;-77
2022/05/29 01:58:54;;;;;;;2.33;1.20;;;7.00;20.70;;;;;;5007745;28;34348;-77
2022/05/29 02:01:25;;;;;;;1.17;1.08;;;7.00;20.70;;;;;;4990410;28;34663;-77
2022/05/29 02:03:55;;;;;;;2.28;1.00;;;7.00;20.30;;;;;;4955347;28;34259;-77
2022/05/29 02:09:20;;;;;;;4.32;1.20;;;6.90;22.10;;;;;;5005483;28;35043;-77
2022/05/29 02:11:50;;;;;;;1.45;0.95;;;6.80;20.50;;;;;;4973312;28;34286;-77
2022/05/29 02:14:21;;;;;;;4.32;1.00;;;6.80;20.50;;;;;;4973318;28;34083;-78
2022/05/29 02:16:53;;;;;;;2.90;1.05;;;6.70;21.10;;;;;;4989088;28;34194;-77
2022/05/29 02:19:32;;;;;;;0.77;0.68;;;6.70;20.60;;;;;;4971535;28;35610;-78
2022/05/29 02:22:10;;;;;;;2.83;1.15;;;6.60;21.60;;;;;;4983804;28;34930;-77
2022/05/29 02:24:41;;;;;;;2.22;1.00;;;6.60;22.10;;;;;;4969310;28;34048;-77
2022/05/29 02:27:21;;;;;;;5.05;1.45;;;6.50;20.40;;;;;;4975205;28;34351;-78
2022/05/29 02:29:48;;;;;;;1.10;1.00;;;6.50;21.00;;;;;;4990255;28;34318;-77
2022/05/29 02:32:41;;;;;;;3.58;1.27;;;6.50;20.70;;;;;;4969132;28;34677;-77
2022/05/29 02:35:29;;;;;;;4.82;1.23;;;6.40;22.30;;;;;;4969694;28;34356;-77
2022/05/29 02:38:16;;;;;;;3.33;1.20;;;6.40;22.70;;;;;;4971543;28;34407;-77
2022/05/29 02:41:13;;;;;;;3.03;1.30;;;6.30;21.60;;;;;;4982426;28;35678;-77
2022/05/29 02:43:49;;;;;;;2.13;1.10;;;6.30;23.00;;;;;;5008122;28;34658;-77
2022/05/29 02:46:36;;;;;;;2.45;1.10;;;6.20;21.20;;;;;;5006444;28;34092;-80
2022/05/29 02:49:23;;;;;;;1.60;1.10;;;6.20;22.90;;;;;;5027133;28;35049;-78
2022/05/29 02:51:56;;;;;;;3.95;1.00;;;6.20;22.50;;;;;;5011196;28;35730;-79
2022/05/29 02:54:27;;;;;;;3.95;1.15;;;6.10;21.40;;;;;;4991907;28;34460;-77
2022/05/29 02:56:54;;;;;;;1.80;1.00;;;6.10;21.20;;;;;;5012178;28;34606;-78
2022/05/29 02:59:24;;;;;;;2.38;1.02;;;6.00;21.00;;;;;;5000014;28;34242;-77
2022/05/29 03:02:10;;;;;;;1.75;1.10;;;6.00;21.40;;;;;;5021966;28;34709;-77
2022/05/29 03:04:53;;;;;;;0.90;0.88;;;6.00;21.80;;;;;;4991111;28;34503;-78
2022/05/29 03:07:35;;;;;;;1.08;0.90;;;6.00;22.00;;;;;;5000887;28;34346;-78
2022/05/29 03:10:19;;;;;;;2.60;1.20;;;5.90;22.30;;;;;;5003730;28;34274;-77
2022/05/29 03:18:50;;;;;;;1.48;1.08;;;5.80;21.40;;;;;;5021936;28;56163;-76
2022/05/29 03:21:34;;;;;;;2.17;1.33;;;5.80;23.30;;;;;;5024433;28;34493;-76
2022/05/29 03:24:22;;;;;;;2.28;1.10;;;5.80;22.90;;;;;;5010399;28;35196;-77
2022/05/29 03:27:06;;;;;;;1.33;1.10;;;5.80;23.40;;;;;;4996681;28;34443;-77
2022/05/29 03:29:53;;;;;;;2.58;1.00;;;5.70;23.00;;;;;;4996742;28;34335;-77
2022/05/29 03:32:21;;;;;;;1.38;1.27;;;5.70;22.20;;;;;;5016246;28;34176;-77
2022/05/29 03:34:47;;;;;;;2.75;1.20;;;5.70;21.60;;;;;;4989584;28;35797;-77
2022/05/29 03:37:14;;;;;;;6.93;1.30;;;5.60;21.40;;;;;;5007044;28;34142;-78
2022/05/29 03:39:40;;;;;;;2.70;1.23;;;5.60;21.50;;;;;;4998188;28;34341;-77
2022/05/29 03:42:06;;;;;;;5.20;1.20;;;5.60;21.50;;;;;;4997444;28;34316;-78
2022/05/29 03:44:32;;;;;;;1.42;1.13;;;5.60;21.60;;;;;;4989774;28;35962;-77
2022/05/29 03:46:58;;;;;;;0.95;0.90;;;5.60;21.60;;;;;;4987262;28;34406;-77
2022/05/29 03:49:25;;;;;;;2.80;1.10;;;5.50;21.80;;;;;;4987435;28;34257;-77
2022/05/29 03:51:51;;;;;;;3.33;1.10;;;5.50;21.90;;;;;;5006033;28;34425;-77
2022/05/29 03:54:18;;;;;;;2.83;1.10;;;5.50;21.80;;;;;;5006679;28;36525;-77
2022/05/29 03:56:44;;;;;;;1.48;1.17;;;5.40;21.90;;;;;;4988805;28;34060;-77
2022/05/29 03:59:10;;;;;;;2.92;1.17;;;5.50;22.00;;;;;;5003327;28;34451;-77
2022/05/29 04:01:36;;;;;;;6.10;0.98;;;5.40;21.90;;;;;;5021740;28;34079;-77
2022/05/29 04:04:03;;;;;;;1.42;1.00;;;5.40;22.00;;;;;;5016109;28;35276;-77
2022/05/29 04:06:34;;;;;;;2.03;1.30;;;5.40;22.00;;;;;;4994045;28;34356;-77
2022/05/29 04:14:25;;;;;;;2.88;1.02;;;5.40;22.20;;;;;;5017503;28;34090;-77
2022/05/29 04:16:52;;;;;;;2.40;1.27;;;5.40;22.10;;;;;;4992564;28;34117;-77
2022/05/29 04:19:19;;;;;;;4.85;1.55;;;5.40;22.00;;;;;;4990407;28;34307;-77
2022/05/29 04:21:47;;;;;;;1.27;1.10;;;5.40;21.90;;;;;;4996720;28;34101;-77
2022/05/29 04:24:16;;;;;;;1.67;1.33;;;5.40;22.10;;;;;;5001527;28;34310;-77
2022/05/29 04:26:42;;;;;;;2.03;1.20;;;5.50;22.20;;;;;;4980997;28;34303;-77
2022/05/29 04:29:08;;;;;;;2.35;1.30;;;5.50;22.30;;;;;;5013780;28;34450;-77
2022/05/29 04:31:34;;;;;;;1.40;1.02;;;5.50;22.40;;;;;;4986941;28;34352;-76
2022/05/29 04:34:00;;;;;;;3.92;1.10;;;5.50;22.30;;;;;;4991386;28;35519;-77
2022/05/29 04:36:26;;;;;;;2.05;1.50;;;5.50;22.30;;;;;;4992417;28;34431;-76
2022/05/29 04:38:53;;;;;;;2.95;1.30;;;5.50;22.50;;;;;;4983554;28;34496;-77
2022/05/29 04:41:25;;;;;;;4.28;1.30;;;5.60;22.40;;;;;;5004032;28;34290;-77
2022/05/29 04:43:52;;;;;;;1.42;1.33;;;5.60;22.40;;;;;;4986214;28;35843;-77
2022/05/29 04:46:19;;;;;;;3.63;1.30;;;5.60;22.40;;;;;;4986707;28;34116;-77
2022/05/29 04:48:45;;;;;;;3.45;1.40;;;5.70;23.30;;;;;;4983235;28;34431;-77
2022/05/29 04:51:11;;;;;;;2.22;1.25;;;5.70;22.50;;;;;;4987745;28;34101;-77
2022/05/29 04:53:37;;;;;;;3.13;1.60;;;5.80;22.50;;;;;;4982872;28;35641;-77
2022/05/29 04:56:04;;;;;;;2.75;1.30;;;5.80;23.30;;;;;;4982269;28;34452;-77
2022/05/29 04:58:30;;;;;;;3.20;1.40;;;5.80;22.60;;;;;;4969439;28;34437;-76
2022/05/29 05:00:59;;;;;;;3.60;1.40;;;5.90;22.60;;;;;;4986367;28;34383;-76
2022/05/29 05:03:25;;;;;;;1.23;1.13;;;6.00;22.70;;;;;;4985607;28;34616;-77
2022/05/29 05:05:51;;;;;;;1.50;1.40;;;6.00;23.30;;;;;;4995175;28;34242;-77
2022/05/29 05:08:17;;;;;;;3.53;1.60;;;6.10;22.60;;;;;;4957992;28;34238;-77
2022/05/29 05:10:43;;;;;;;1.80;1.40;;;6.20;22.70;;;;;;4994432;28;34250;-76
2022/05/29 05:13:09;;;;;;;5.22;1.67;;;6.40;22.90;;;;;;4991289;28;35908;-77
2022/05/29 05:15:35;;;;;;;1.50;1.40;;;6.60;22.80;;;;;;4981031;28;34401;-76
2022/05/29 05:18:01;;;;;;;2.25;1.73;;;7.20;22.40;;;;;;4980376;28;34357;-77
2022/05/29 05:20:28;;;;;;;2.40;1.85;;;8.00;21.50;;;;;;4954917;28;34450;-77
2022/05/29 05:22:54;;;;;;;3.28;1.80;;;9.00;19.80;;;;;;5008811;28;34126;-78
2022/05/29 05:25:20;;;;;;;3.47;1.67;;;10.10;18.30;;;;;;5017860;28;34118;-77
2022/05/29 05:27:46;;;;;;;5.45;1.60;;;11.20;16.70;;;;;;5003626;28;34359;-78
2022/05/29 05:30:13;;;;;;;2.10;1.50;;;12.20;15.60;;;;;;4985850;28;34088;-77
2022/05/29 05:32:39;;;;;;;1.20;1.10;;;13.10;14.60;;;;;;4985965;28;35715;-78
2022/05/29 05:35:07;;;;;;;3.55;1.70;;;14.00;13.80;;;;;;5002359;28;34199;-78
2022/05/29 05:37:36;;;;;;;4.75;1.30;;;14.80;12.90;;;;;;4973909;28;34366;-78
2022/05/29 05:40:04;;;;;;;3.33;1.50;;;15.60;11.90;;;;;;4986110;28;34043;-78
2022/05/29 05:42:29;;;;;;;1.95;1.38;;;16.30;11.60;;;;;;4990663;28;34331;-78
2022/05/29 05:44:56;;;;;;;3.42;1.23;;;17.00;10.90;;;;;;4961542;28;34318;-79
2022/05/29 05:47:22;;;;;;;3.08;1.63;;;17.70;10.10;;;;;;4978507;28;34305;-80
2022/05/29 05:49:49;;;;;;;2.80;1.55;;;18.20;9.00;;;;;;4988251;28;34289;-79
2022/05/29 05:52:16;;;;;;;2.80;1.40;;;18.50;8.60;;;;;;4983682;28;35596;-79
2022/05/29 05:54:43;;;;;;;4.05;1.50;;;18.90;8.40;;;;;;4999363;28;34202;-80
2022/05/29 05:57:09;;;;;;;2.40;1.48;;;19.30;8.10;;;;;;4989609;28;34194;-81
2022/05/29 05:59:36;;;;;;;1.83;1.30;;;19.60;7.80;;;;;;4984856;28;34195;-80
2022/05/29 06:02:02;;;;;;;3.55;1.60;;;19.70;7.30;;;;;;4975866;28;34509;-79
2022/05/29 06:04:47;;;;;;;4.30;1.70;;;20.10;7.30;;;;;;4975873;28;34314;-80
2022/05/29 06:07:13;;;;;;;2.30;1.45;;;20.50;1.70;;;;;;4990560;28;34147;-80
2022/05/29 06:09:40;;;;;;;2.45;1.20;;;20.70;6.70;;;;;;4975148;28;34420;-81
2022/05/29 06:12:07;;;;;;;3.28;1.45;;;21.20;6.30;;;;;;5004732;28;34760;-80
2022/05/29 06:14:34;;;;;;;3.95;1.40;;;21.50;5.80;;;;;;4989759;28;34081;-79
2022/05/29 06:17:03;;;;;;;3.53;1.20;;;21.80;5.30;;;;;;4987262;28;34349;-80
2022/05/29 06:19:38;;;;;;;5.18;1.48;;;22.00;4.50;;;;;;4987272;28;34072;-81
2022/05/29 06:22:04;;;;;;;3.67;1.23;;;22.10;4.60;;;;;;4993490;28;35658;-79
2022/05/29 06:24:30;;;;;;;1.95;1.20;;;22.40;4.30;;;;;;4978052;28;34036;-80
2022/05/29 06:26:58;;;;;;;4.07;1.08;;;22.50;4.00;;;;;;5000941;28;34008;-81
2022/05/29 06:29:25;;;;;;;3.65;1.70;;;22.60;3.10;;;;;;5004347;28;34236;-79
2022/05/29 06:31:53;;;;;;;3.92;1.35;;;22.80;3.60;;;;;;4996286;28;36772;-80
2022/05/29 06:34:21;;;;;;;4.43;1.30;;;22.90;3.40;;;;;;4994631;28;34373;-81
2022/05/29 06:36:47;;;;;;;3.10;1.42;;;23.10;3.10;;;;;;5007348;28;34418;-83
2022/05/29 06:39:13;;;;;;;4.93;1.45;;;23.20;2.80;;;;;;5007938;28;34501;-81
2022/05/29 06:41:39;;;;;;;1.88;1.20;;;23.40;2.60;;;;;;4982278;28;35569;-79
2022/05/29 06:44:07;;;;;;;3.80;1.50;;;23.50;2.20;;;;;;4987445;28;34709;-81
2022/05/29 06:46:35;;;;;;;1.70;1.27;;;23.60;1.60;;;;;;5007519;28;34427;-83
2022/05/29 06:49:01;;;;;;;4.97;1.30;;;23.70;1.70;;;;;;5006471;28;34462;-82
2022/05/29 06:51:27;;;;;;;3.20;1.27;;;23.80;1.70;;;;;;5001088;28;36735;-79
2022/05/29 06:53:55;;;;;;;3.78;1.20;;;23.80;1.50;;;;;;5006874;28;34106;-80
2022/05/29 06:56:22;;;;;;;6.53;1.48;;;23.80;1.00;;;;;;5008051;28;34255;-81
2022/05/29 06:58:48;;;;;;;3.05;1.00;;;24.00;1.20;;;;;;4979118;28;34592;-82
2022/05/29 07:07:01;;;;;;;2.25;1.30;;;23.90;1.00;;;;;;5004504;28;34580;-82
2022/05/29 07:09:34;;;;;;;2.63;1.27;;;23.70;1.00;;;;;;5006246;28;34420;-82
2022/05/29 07:12:08;;;;;;;4.38;1.02;;;23.50;1.00;;;;;;4990897;28;35577;-83
2022/05/29 07:14:39;;;;;;;3.30;1.30;;;23.30;1.00;;;;;;4990990;28;34334;-82
2022/05/29 07:17:06;;;;;;;1.92;1.10;;;23.40;1.00;;;;;;5005924;28;34365;-84
2022/05/29 07:19:34;;;;;;;3.25;1.10;;;23.20;1.20;;;;;;4976252;28;34587;-83
2022/05/29 07:22:00;;;;;;;1.48;0.90;;;23.20;1.20;;;;;;4999460;28;36567;-79
2022/05/29 07:24:28;;;;;;;3.35;1.00;;;23.20;1.20;;;;;;4995507;28;34289;-81
2022/05/29 07:26:54;;;;;;;2.00;1.00;;;23.10;1.00;;;;;;5006051;28;34400;-80
2022/05/29 07:29:22;;;;;;;3.30;1.00;;;23.00;1.10;;;;;;5009941;28;34539;-76
2022/05/29 07:31:48;;;;;;;1.45;0.88;;;22.70;1.10;;;;;;5003634;28;36829;-80
2022/05/29 07:34:14;;;;;;;4.75;1.15;;;22.20;1.50;;;;;;5006991;28;33970;-82
2022/05/29 07:36:40;;;;;;;2.13;1.10;;;21.60;2.10;;;;;;4990492;28;34094;-81
2022/05/29 07:39:06;;;;;;;3.03;1.30;;;21.10;2.50;;;;;;4989262;28;34152;-81
2022/05/29 07:44:13;;;;;;;1.65;0.63;;;20.90;2.60;;;;;;4998069;28;34349;-78
2022/05/29 07:46:39;;;;;;;1.20;0.95;;;21.20;2.20;;;;;;5003695;28;34377;-78
2022/05/29 07:49:06;;;;;;;3.33;1.15;;;21.40;1.70;;;;;;5007334;28;34166;-80
2022/05/29 07:51:33;;;;;;;2.00;0.57;;;21.70;1.40;;;;;;5004728;28;36308;-82
2022/05/29 07:53:59;;;;;;;2.95;0.90;;;21.90;1.20;;;;;;5003076;28;34726;-81
2022/05/29 07:56:26;;;;;;;3.58;0.88;;;22.20;1.00;;;;;;5001143;28;34323;-82
2022/05/29 07:58:52;;;;;;;2.92;1.02;;;22.50;1.00;;;;;;5006196;28;34168;-80
2022/05/29 08:01:22;;;;;;;0.90;0.70;;;22.20;1.00;;;;;;5004835;28;35599;-84
2022/05/29 08:03:49;;;;;;;2.28;0.85;;;21.70;1.00;;;;;;5009187;28;34474;-80
2022/05/29 08:06:15;;;;;;;2.13;0.93;;;21.30;1.30;;;;;;5005211;28;34459;-83
2022/05/29 08:08:41;;;;;;;2.63;0.80;;;21.00;1.10;;;;;;4988919;28;34179;-80
2022/05/29 08:11:08;;;;;;;4.10;1.00;;;21.00;1.10;;;;;;5007113;28;34321;-80
2022/05/29 08:13:36;;;;;;;1.55;0.82;;;20.70;1.20;;;;;;5005775;28;34176;-82
2022/05/29 08:16:05;;;;;;;1.95;1.10;;;20.20;1.60;;;;;;5001588;28;34370;-81
2022/05/29 08:18:30;;;;;;;2.67;1.00;;;20.30;1.60;;;;;;5005093;28;34258;-82
2022/05/29 08:20:57;;;;;;;1.65;1.08;;;20.10;1.90;;;;;;5005670;28;34325;-85
2022/05/29 08:23:23;;;;;;;1.35;0.90;;;19.60;1.50;;;;;;5005263;28;34297;-83
2022/05/29 08:31:30;;;;;;;2.63;1.13;;;20.70;1.00;;;;;;4997703;28;34830;-83
2022/05/29 08:33:56;;;;;;;1.65;0.90;;;21.10;1.00;;;;;;4975104;28;34506;-81
2022/05/29 08:36:25;;;;;;;2.17;1.50;;;21.20;1.00;;;;;;5001846;28;34338;-81
2022/05/29 08:38:55;;;;;;;2.00;0.90;;;21.20;1.00;;;;;;4977495;28;34902;-79
2022/05/29 08:41:42;;;;;;;5.22;0.93;;;21.20;1.00;;;;;;4986599;28;35911;-82
2022/05/29 08:44:14;;;;;;;1.92;1.10;;;21.00;1.00;;;;;;4997414;28;34574;-82
2022/05/29 08:46:44;;;;;;;1.85;0.98;;;20.70;1.00;;;;;;5000907;28;34342;-83
2022/05/29 08:49:16;;;;;;;2.95;0.93;;;20.30;1.00;;;;;;5001683;28;34333;-80
2022/05/29 08:52:05;;;;;;;6.80;1.25;;;20.10;1.00;;;;;;5004527;28;34464;-78
2022/05/29 08:54:56;;;;;;;2.17;1.20;;;19.90;1.00;;;;;;4992835;28;34214;-82
2022/05/29 08:57:57;;;;;;;1.13;1.00;;;19.60;1.00;;;;;;4999734;28;34471;-83
2022/05/29 09:00:57;;;;;;;2.35;1.10;;;19.50;1.00;;;;;;4989666;28;34178;-83
2022/05/29 09:03:41;;;;;;;3.15;1.10;;;19.40;1.00;;;;;;4987447;28;35561;-79
2022/05/29 09:06:14;;;;;;;2.05;1.08;;;19.30;1.00;;;;;;5002001;28;34142;-82
2022/05/29 09:08:53;;;;;;;1.45;1.00;;;19.70;1.00;;;;;;4994645;28;33739;-82
2022/05/29 09:11:28;;;;;;;2.45;0.90;;;19.80;1.00;;;;;;5000270;28;34185;-81
2022/05/29 09:13:56;;;;;;;1.80;0.98;;;19.60;1.00;;;;;;5005187;28;35760;-83
2022/05/29 09:16:25;;;;;;;1.05;0.98;;;19.40;1.00;;;;;;4989204;28;34504;-79
2022/05/29 09:19:20;;;;;;;1.63;0.90;;;19.10;1.00;;;;;;5003919;28;34486;-78
2022/05/29 09:21:54;;;;;;;3.15;0.88;;;18.70;1.00;;;;;;5021927;28;34304;-83
2022/05/29 09:24:41;;;;;;;1.15;1.00;;;18.60;1.00;;;;;;5010234;28;36300;-81
2022/05/29 09:27:10;;;;;;;1.83;0.85;;;18.50;1.00;;;;;;5003386;28;34621;-83
2022/05/29 09:29:37;;;;;;;2.17;0.90;;;18.40;1.60;;;;;;4983985;28;34238;-84
2022/05/29 09:32:05;;;;;;;1.40;0.95;;;18.40;1.90;;;;;;5004486;28;34778;-85
2022/05/29 09:34:32;;;;;;;1.42;1.00;;;18.50;1.90;;;;;;5005991;28;35576;-84
2022/05/29 09:37:21;;;;;;;1.67;1.02;;;18.50;1.70;;;;;;4987121;28;34153;-83
2022/05/29 09:39:54;;;;;;;1.77;0.80;;;18.50;1.00;;;;;;5007551;28;34219;-85
2022/05/29 09:42:29;;;;;;;1.27;1.13;;;18.60;1.50;;;;;;5012405;28;34388;-80
2022/05/29 09:45:23;;;;;;;2.15;0.93;;;18.60;1.10;;;;;;4974596;28;36629;-85
2022/05/29 09:50:50;;;;;;;1.90;0.75;;;18.50;1.40;;;;;;5017318;28;34371;-84
2022/05/29 09:53:34;;;;;;;3.38;0.80;;;18.70;1.00;;;;;;4996799;28;34218;-84
2022/05/29 09:56:05;;;;;;;0.80;0.80;;;18.80;1.40;;;;;;5021912;28;35041;-78
2022/05/29 09:58:50;;;;;;;2.58;0.77;;;19.00;1.00;;;;;;4988062;28;34357;-82
2022/05/29 10:01:34;;;;;;;1.25;0.70;;;19.00;1.00;;;;;;4983893;28;34135;-84
2022/05/29 10:04:21;;;;;;;0.65;0.55;;;19.00;1.00;;;;;;5006757;28;34495;-79
2022/05/29 10:06:53;;;;;;;1.52;0.82;;;18.90;1.00;;;;;;4996959;28;36279;-82
2022/05/29 10:09:21;;;;;;;1.95;0.80;;;18.80;1.00;;;;;;5006214;28;34397;-80
2022/05/29 10:11:52;;;;;;;0.60;0.60;;;18.70;1.30;;;;;;5009850;28;34425;-83
2022/05/29 10:14:36;;;;;;;0.82;0.70;;;18.60;1.90;;;;;;4990618;28;34095;-79
2022/05/29 10:17:11;;;;;;;1.05;0.60;;;18.50;1.00;;;;;;5004852;28;35649;-79
2022/05/29 10:19:40;;;;;;;2.05;0.77;;;18.40;1.10;;;;;;4988717;28;34384;-82
2022/05/29 10:22:18;;;;;;;0.73;0.55;;;18.30;1.80;;;;;;4986921;28;34090;-80
2022/05/29 10:24:45;;;;;;;1.90;0.90;;;18.30;1.50;;;;;;4988260;28;34090;-82
2022/05/29 10:27:29;;;;;;;1.08;0.90;;;18.40;2.00;;;;;;5021371;28;34505;-81
2022/05/29 10:30:01;;;;;;;0.73;0.73;;;18.60;2.10;;;;;;4997554;28;34157;-80
2022/05/29 10:32:30;;;;;;;1.52;0.70;;;18.60;1.10;;;;;;5002160;28;34541;-83
2022/05/29 10:35:16;;;;;;;2.00;0.73;;;18.60;1.40;;;;;;4984747;28;34414;-80
2022/05/29 10:37:44;;;;;;;1.65;0.65;;;18.70;1.00;;;;;;5006240;28;36730;-82
2022/05/29 10:40:23;;;;;;;0.55;0.55;;;18.70;1.80;;;;;;4988303;28;34139;-83
2022/05/29 10:42:53;;;;;;;0.50;0.50;;;18.60;1.30;;;;;;4992239;28;34869;-78
2022/05/29 10:45:25;;;;;;;1.38;0.60;;;18.40;1.40;;;;;;4993933;28;34220;-80
2022/05/29 10:48:19;;;;;;;0.88;0.60;;;18.20;1.40;;;;;;5001947;28;36534;-80
2022/05/29 10:51:13;;;;;;;1.75;0.63;;;18.00;1.40;;;;;;5009657;28;34102;-78
2022/05/29 10:54:03;;;;;;;1.77;0.60;;;17.80;1.50;;;;;;5029820;28;34187;-79
2022/05/29 10:56:52;;;;;;;0.85;0.60;;;17.60;2.40;;;;;;5010948;28;34546;-84
2022/05/29 10:59:53;;;;;;;0.60;0.50;;;17.50;2.90;;;;;;5006387;28;35995;-80
2022/05/29 11:05:41;;;;;;;1.23;0.60;;;17.30;3.30;;;;;;5014533;28;34114;-78
2022/05/29 11:08:28;;;;;;;2.72;0.75;;;17.20;2.80;;;;;;5000776;28;34118;-81
2022/05/29 11:11:15;;;;;;;2.20;0.60;;;17.30;3.40;;;;;;4995944;28;36612;-83
2022/05/29 11:14:10;;;;;;;1.70;0.77;;;17.40;3.60;;;;;;4997685;28;34346;-81
2022/05/29 11:16:59;;;;;;;3.65;0.90;;;17.60;2.60;;;;;;4993461;28;34067;-84
2022/05/29 11:19:54;;;;;;;0.88;0.60;;;17.80;3.20;;;;;;5026186;28;34118;-80
2022/05/29 11:22:44;;;;;;;1.30;0.63;;;18.20;3.50;;;;;;5025021;28;35628;-80
2022/05/29 11:25:40;;;;;;;2.85;0.70;;;18.40;1.00;;;;;;4985252;28;34339;-82
2022/05/29 11:28:37;;;;;;;0.75;0.65;;;18.60;1.40;;;;;;5025732;28;34339;-82
2022/05/29 11:31:34;;;;;;;1.50;0.70;;;19.00;2.00;;;;;;5002859;28;34071;-82
2022/05/29 11:34:20;;;;;;;1.92;0.82;;;19.20;1.50;;;;;;5004932;28;36322;-79
2022/05/29 11:37:11;;;;;;;1.42;0.70;;;19.40;1.10;;;;;;5000682;28;34249;-80
2022/05/29 11:39:59;;;;;;;0.80;0.50;;;19.30;1.00;;;;;;4999978;28;34257;-78
2022/05/29 11:42:31;;;;;;;2.22;0.80;;;19.30;1.40;;;;;;5006751;28;34235;-82
2022/05/29 11:45:08;;;;;;;2.20;0.55;;;19.30;2.20;;;;;;4991168;28;35920;-81
2022/05/29 11:53:30;;;;;;;2.08;0.80;;;19.20;2.20;;;;;;5026144;28;34311;-80
2022/05/29 11:55:58;;;;;;;1.48;0.70;;;19.20;1.00;;;;;;5003841;28;36744;-83
2022/05/29 11:58:26;;;;;;;0.80;0.60;;;19.30;2.30;;;;;;5009706;28;34237;-79
2022/05/29 12:00:58;;;;;;;1.48;0.77;;;19.20;2.20;;;;;;5021676;28;34163;-82
2022/05/29 12:03:44;;;;;;;1.52;0.55;;;19.10;1.90;;;;;;5006103;28;34272;-83
2022/05/29 12:06:29;;;;;;;1.35;0.50;;;19.00;1.00;;;;;;5015554;28;35453;-82
2022/05/29 12:09:13;;;;;;;0.77;0.50;;;18.90;2.40;;;;;;5006902;28;34268;-78
2022/05/29 12:11:50;;;;;;;1.45;0.47;;;18.80;1.20;;;;;;5009640;28;34272;-82
2022/05/29 12:14:27;;;;;;;0.40;0.40;;;18.70;2.70;;;;;;5006114;28;34617;-80
2022/05/29 12:17:02;;;;;;;2.13;0.77;;;18.70;2.60;;;;;;5003637;28;36693;-81
2022/05/29 12:19:34;;;;;;;0.60;0.60;;;18.70;2.60;;;;;;5015708;28;34205;-80
2022/05/29 12:22:05;;;;;;;0.73;0.50;;;18.70;2.20;;;;;;5003115;28;33787;-82
2022/05/29 12:24:35;;;;;;;0.47;0.40;;;18.70;2.60;;;;;;5004114;28;33841;-83
2022/05/29 12:27:15;;;;;;;1.20;0.50;;;18.60;3.20;;;;;;5001410;28;36413;-84
2022/05/29 12:29:55;;;;;;;0.45;0.40;;;18.50;2.60;;;;;;4998973;28;34064;-83
2022/05/29 12:32:25;;;;;;;0.73;0.40;;;18.50;2.70;;;;;;5012773;28;34746;-82
2022/05/29 12:35:05;;;;;;;1.95;0.70;;;18.40;3.00;;;;;;5000135;28;34177;-81
2022/05/29 12:37:48;;;;;;;1.42;0.50;;;18.50;2.20;;;;;;5002663;28;35816;-80
2022/05/29 12:40:38;;;;;;;0.55;0.50;;;18.90;3.00;;;;;;5008739;28;34171;-82
2022/05/29 12:43:36;;;;;;;0.40;0.40;;;19.10;1.00;;;;;;4990523;28;34258;-82
2022/05/29 12:46:20;;;;;;;0.45;0.45;;;19.50;1.00;;;;;;4993788;28;34291;-79
2022/05/29 12:49:17;;;;;;;1.17;0.50;;;19.70;1.00;;;;;;5011777;28;35519;-82
2022/05/29 12:52:14;;;;;;;0.30;0.30;;;19.70;1.00;;;;;;5027441;28;34224;-83
2022/05/29 12:55:02;;;;;;;0.73;0.40;;;19.50;1.00;;;;;;5014423;28;34252;-82
2022/05/29 12:57:57;;;;;;;0.40;0.40;;;19.50;1.00;;;;;;5027392;28;34299;-82
2022/05/29 13:00:43;;;;;;;0.50;0.50;;;19.40;1.00;;;;;;4997401;28;35626;-82
2022/05/29 13:03:35;;;;;;;0.45;0.40;;;19.30;1.00;;;;;;4978105;28;34252;-80
2022/05/29 13:06:31;;;;;;;0.85;0.40;;;19.20;1.00;;;;;;5004287;28;34152;-80
2022/05/29 13:09:27;;;;;;;0.60;0.40;;;19.40;1.00;;;;;;5011676;28;34283;-80
2022/05/29 13:12:00;;;;;;;0.60;0.60;;;19.70;1.10;;;;;;5006942;28;35988;-80
2022/05/29 13:14:27;;;;;;;0.50;0.50;;;20.20;1.40;;;;;;5018676;28;34190;-78
2022/05/29 13:17:10;;;;;;;0.80;0.60;;;20.40;1.30;;;;;;5010558;28;34256;-77
2022/05/29 13:20:06;;;;;;;0.47;0.47;;;20.50;1.00;;;;;;5029483;28;34406;-76
2022/05/29 13:22:49;;;;;;;1.08;0.57;;;20.60;1.00;;;;;;5020769;28;34335;-79
2022/05/29 13:25:17;;;;;;;1.85;0.60;;;20.90;1.00;;;;;;5010571;28;34008;-82
2022/05/29 13:27:44;;;;;;;0.63;0.43;;;21.00;1.00;;;;;;4977890;28;34377;-78
2022/05/29 13:30:49;;;;;;;1.77;0.50;;;21.20;1.00;;;;;;5011307;28;34210;-77
2022/05/29 13:33:43;;;;;;;0.30;0.30;;;21.20;1.00;;;;;;4983966;28;36002;-76
2022/05/29 13:36:10;;;;;;;1.30;0.50;;;21.20;1.00;;;;;;5026380;28;34295;-77
2022/05/29 13:38:54;;;;;;;0.50;0.50;;;21.30;1.00;;;;;;5014933;28;33722;-78
2022/05/29 13:41:55;;;;;;;0.82;0.50;;;21.50;1.00;;;;;;4991681;28;34128;-74
2022/05/29 13:44:37;;;;;;;1.10;0.40;;;21.40;1.00;;;;;;4980972;28;36789;-79
2022/05/29 13:47:29;;;;;;;0.93;0.60;;;21.30;1.00;;;;;;4994094;28;34201;-79
2022/05/29 13:50:21;;;;;;;1.00;0.50;;;21.20;1.00;;;;;;4993698;28;34246;-77
2022/05/29 13:52:55;;;;;;;1.20;0.40;;;20.90;1.00;;;;;;5023929;28;34156;-78
2022/05/29 13:55:30;;;;;;;1.42;0.63;;;20.50;1.00;;;;;;4981505;28;36862;-77
2022/05/29 14:06:42;;;;;;;0.55;0.50;;;19.50;1.40;;;;;;5010849;28;34243;-77
2022/05/29 14:09:47;;;;;;;0.60;0.40;;;19.40;1.40;;;;;;5013499;28;34232;-80
2022/05/29 14:12:34;;;;;;;2.08;0.40;;;19.30;1.10;;;;;;5005052;28;34492;-79
2022/05/29 14:15:35;;;;;;;0.95;0.40;;;19.20;1.90;;;;;;4979605;28;34258;-78
2022/05/29 14:18:09;;;;;;;0.40;0.40;;;19.10;1.80;;;;;;4981463;28;35907;-78
2022/05/29 14:21:01;;;;;;;0.43;0.40;;;19.20;2.50;;;;;;4994477;28;34396;-79
2022/05/29 14:23:49;;;;;;;0.47;0.45;;;19.40;1.70;;;;;;5013032;28;34341;-77
2022/05/29 14:26:46;;;;;;;0.95;0.55;;;19.70;1.00;;;;;;5015679;28;34467;-79
2022/05/29 14:29:42;;;;;;;0.30;0.30;;;19.90;1.00;;;;;;5031378;28;34185;-78